sim
Sign-in with your pilot id or email,
or register
Callsign
Passwort

Schedule Details

Flight Number: OEF9171
Departure: Munich Airport (EDDM) at 19:00
Arrival: Nairobi Jomo Kenyatta International Airport (HKJK) at 01:55

Weather Information
Getting current METAR information for EDDM 260220Z 27011KT 9999 -RA SCT014 BKN024 08/06 Q1000 NOSIG
Getting current METAR information for HKJK 260200Z 07004KT 9999 SCT004 OVC015 16/15 Q1021 NOSIG

Schedule Frequency

Route Map